Terminal Aerodrome Forecast
Issued by NWS Sterling, VA

Current Version | Previous Version | Text Only | Print | Product List | Glossary On
Versions: 1 2 3 4 5 6 7 8 9 10 11 12 13 14 15 16 17 18 19 20 21 22 23
114
FTUS41 KLWX 170520
TAFBWI
TAF
KBWI 170520Z 1706/1812 00000KT P6SM VCSH OVC015
     FM171300 00000KT 5SM -SHRA BR OVC015
     FM171500 15005KT 5SM -SHRA BR OVC008
     FM172100 16005KT P6SM OVC003
     FM180300 23005KT 6SM BR BKN003
     FM180600 25005KT P6SM BKN010
     FM180900 27005KT P6SM BKN050=

USA.gov is the U.S. government's official web portal to all federal, state and local government web resources and services.